createdAt,value
2022-10-28T00:02:09.897Z,95.84
2022-10-28T00:04:37.417Z,95.21
2022-10-28T00:07:05.432Z,95.24
2022-10-28T00:09:33.051Z,94.64
2022-10-28T00:12:00.495Z,94.96
2022-10-28T00:14:27.948Z,95.33
2022-10-28T00:16:55.403Z,94.87
2022-10-28T00:19:24.216Z,95.08
2022-10-28T00:21:51.692Z,94.62
2022-10-28T00:24:19.175Z,94.76
2022-10-28T00:26:46.871Z,95.32
2022-10-28T00:29:16.571Z,95.72
2022-10-28T00:31:45.004Z,95.13
2022-10-28T00:34:15.092Z,95.55
2022-10-28T00:36:45.559Z,96.51
2022-10-28T00:39:15.352Z,95.44
2022-10-28T00:41:45.392Z,95.12
2022-10-28T00:44:57.323Z,95.12
2022-10-28T00:47:34.463Z,95.23
2022-10-28T00:50:12.364Z,95.24
2022-10-28T00:52:42.511Z,95.72
2022-10-28T00:55:10.687Z,95.13
2022-10-28T00:57:39.653Z,95.29
2022-10-28T01:00:08.872Z,95.18
2022-10-28T01:02:45.579Z,95.28
2022-10-28T01:05:15.396Z,95.40
2022-10-28T01:07:44.775Z,95.26
2022-10-28T01:10:14.391Z,95.11
2022-10-28T01:12:54.207Z,94.70
2022-10-28T01:15:34.303Z,95.18
2022-10-28T01:18:09.948Z,95.01
2022-10-28T01:21:12.290Z,95.06
2022-10-28T01:23:53.753Z,94.69
2022-10-28T01:26:37.455Z,94.59
2022-10-28T01:29:41.119Z,95.05
2022-10-28T01:32:18.083Z,95.26
2022-10-28T01:34:54.029Z,94.74
2022-10-28T01:37:31.977Z,94.51
2022-10-28T01:40:09.367Z,94.64
2022-10-28T01:42:43.243Z,94.90
2022-10-28T01:45:16.408Z,94.46
2022-10-28T01:47:51.437Z,95.07
2022-10-28T01:50:25.225Z,98.15
2022-10-28T01:52:56.510Z,96.76
2022-10-28T01:55:28.310Z,96.23
2022-10-28T01:57:59.843Z,95.96
2022-10-28T02:00:27.840Z,95.58
2022-10-28T02:02:57.199Z,95.27
2022-10-28T02:05:45.430Z,95.25
2022-10-28T02:08:28.586Z,95.09
2022-10-28T02:11:07.367Z,95.26
2022-10-28T02:13:45.251Z,95.17
2022-10-28T02:16:23.628Z,94.54
2022-10-28T02:19:02.931Z,95.03
2022-10-28T02:21:38.010Z,94.93
2022-10-28T02:24:14.182Z,94.90
2022-10-28T02:26:47.157Z,95.09
2022-10-28T02:29:18.515Z,94.81
2022-10-28T02:31:51.002Z,95.15
2022-10-28T02:34:24.864Z,95.83
2022-10-28T02:36:55.450Z,95.84
2022-10-28T02:39:27.182Z,97.38
2022-10-28T02:41:58.519Z,95.70
2022-10-28T02:44:30.146Z,95.60
2022-10-28T02:47:03.202Z,95.66
2022-10-28T02:49:34.393Z,95.51
2022-10-28T02:52:06.875Z,95.29
2022-10-28T02:54:40.563Z,95.47
2022-10-28T02:57:11.855Z,100.00
2022-10-28T02:59:39.331Z,98.04
2022-10-28T03:02:06.843Z,97.05
2022-10-28T03:04:35.779Z,96.56
2022-10-28T03:07:03.265Z,97.05
2022-10-28T03:09:30.726Z,95.75
2022-10-28T03:11:58.170Z,95.88
2022-10-28T03:14:25.627Z,95.73
2022-10-28T03:16:53.110Z,95.69
2022-10-28T03:19:20.595Z,96.07
2022-10-28T03:21:49.386Z,95.61
2022-10-28T03:24:16.871Z,95.34
2022-10-28T03:26:44.315Z,94.91
2022-10-28T03:29:11.766Z,95.46
2022-10-28T03:31:39.286Z,95.94
2022-10-28T03:34:06.822Z,95.43
2022-10-28T03:36:34.343Z,95.19
2022-10-28T03:39:03.427Z,94.82
2022-10-28T03:41:30.890Z,94.88
2022-10-28T03:43:58.342Z,95.13
2022-10-28T03:46:25.839Z,96.43
2022-10-28T03:48:53.806Z,95.57
2022-10-28T03:51:21.581Z,95.24
2022-10-28T03:53:49.026Z,95.23
2022-10-28T03:56:17.862Z,94.78
2022-10-28T03:58:47.907Z,95.13
2022-10-28T04:01:15.534Z,95.25
2022-10-28T04:03:43.048Z,95.19
2022-10-28T04:06:10.830Z,95.63
2022-10-28T04:08:38.626Z,94.38
2022-10-28T04:11:06.787Z,94.64
2022-10-28T04:13:36.034Z,94.66
2022-10-28T04:16:03.531Z,95.16
2022-10-28T04:18:31.823Z,94.49
2022-10-28T04:20:59.492Z,94.62
2022-10-28T04:23:26.947Z,94.46
2022-10-28T04:25:55.118Z,94.12
2022-10-28T04:28:24.055Z,95.06
2022-10-28T04:30:52.970Z,96.62
2022-10-28T04:33:20.448Z,96.75
2022-10-28T04:35:47.951Z,96.76
2022-10-28T04:38:15.803Z,95.83
2022-10-28T04:40:43.402Z,95.25
2022-10-28T04:43:11.659Z,95.15
2022-10-28T04:45:39.220Z,95.89
2022-10-28T04:48:09.611Z,95.22
2022-10-28T04:50:37.263Z,95.13
2022-10-28T04:53:04.951Z,95.36
2022-10-28T04:55:32.405Z,95.39
2022-10-28T04:58:01.633Z,95.62
2022-10-28T05:00:30.508Z,95.74
2022-10-28T05:02:58.479Z,95.91
2022-10-28T05:05:27.453Z,95.35
2022-10-28T05:07:55.386Z,95.92
2022-10-28T05:10:23.234Z,96.35
2022-10-28T05:12:50.838Z,96.21
2022-10-28T05:15:18.338Z,95.19
2022-10-28T05:17:47.023Z,95.38
2022-10-28T05:20:16.566Z,95.56
2022-10-28T05:22:48.114Z,96.50
2022-10-28T05:25:15.830Z,96.85
2022-10-28T05:27:43.326Z,96.42
2022-10-28T05:30:11.849Z,97.72
2022-10-28T05:32:39.234Z,96.89
2022-10-28T05:35:07.687Z,98.07
2022-10-28T05:37:35.229Z,100.00
2022-10-28T05:40:04.693Z,100.00
2022-10-28T05:42:32.320Z,98.91
2022-10-28T05:44:59.799Z,100.00
2022-10-28T05:47:27.276Z,100.00
2022-10-28T05:49:54.776Z,100.00
2022-10-28T05:52:22.266Z,100.00
2022-10-28T05:54:49.723Z,100.00
2022-10-28T05:57:18.535Z,100.00
2022-10-28T05:59:46.021Z,100.00
2022-10-28T06:02:15.369Z,100.00
2022-10-28T06:04:43.087Z,100.00
2022-10-28T06:07:10.811Z,100.00
2022-10-28T06:09:38.330Z,100.00
2022-10-28T06:12:06.718Z,100.00
2022-10-28T06:14:35.533Z,99.90
2022-10-28T06:17:06.154Z,100.00
2022-10-28T06:19:33.660Z,100.00
2022-10-28T06:22:01.190Z,100.00
2022-10-28T06:24:28.695Z,100.00
2022-10-28T06:26:56.184Z,100.00
2022-10-28T06:29:23.890Z,100.00
2022-10-28T06:31:52.739Z,100.00
2022-10-28T06:34:20.210Z,100.00
2022-10-28T06:36:47.691Z,100.00
2022-10-28T06:39:15.236Z,100.00
2022-10-28T06:41:43.064Z,100.00
2022-10-28T06:44:10.592Z,100.00
2022-10-28T06:46:39.657Z,100.00
2022-10-28T06:49:09.047Z,100.00
2022-10-28T06:51:36.551Z,100.00
2022-10-28T06:54:04.043Z,100.00
2022-10-28T06:56:31.507Z,100.00
2022-10-28T06:58:58.990Z,100.00
2022-10-28T07:01:26.656Z,100.00
2022-10-28T07:03:54.245Z,100.00
2022-10-28T07:06:23.092Z,100.00
2022-10-28T07:08:50.566Z,100.00
2022-10-28T07:11:18.910Z,100.00
2022-10-28T07:13:48.861Z,100.00
2022-10-28T07:16:16.759Z,100.00
2022-10-28T07:18:44.227Z,100.00
2022-10-28T07:21:12.222Z,100.00
2022-10-28T07:23:41.148Z,100.00
2022-10-28T07:26:08.631Z,100.00
2022-10-28T07:28:36.080Z,100.00
2022-10-28T07:31:04.664Z,100.00
2022-10-28T07:33:32.231Z,100.00
2022-10-28T07:35:59.765Z,100.00
2022-10-28T07:38:27.479Z,100.00
2022-10-28T07:40:56.326Z,100.00
2022-10-28T07:43:23.808Z,100.00
2022-10-28T07:45:56.966Z,100.00
2022-10-28T07:48:24.550Z,100.00
2022-10-28T07:50:52.000Z,100.00
2022-10-28T07:53:20.375Z,100.00
2022-10-28T07:55:57.538Z,100.00
2022-10-28T07:58:25.062Z,100.00
2022-10-28T08:00:52.875Z,100.00
2022-10-28T08:03:20.574Z,100.00
2022-10-28T08:05:48.310Z,100.00
2022-10-28T08:08:15.779Z,100.00
2022-10-28T08:10:43.622Z,100.00
2022-10-28T08:13:12.582Z,100.00
2022-10-28T08:15:40.038Z,100.00
2022-10-28T08:18:07.514Z,100.00
2022-10-28T08:20:34.993Z,100.00
2022-10-28T08:23:04.094Z,100.00
2022-10-28T08:25:34.239Z,100.00
2022-10-28T08:28:01.845Z,100.00
2022-10-28T08:30:36.528Z,100.00
2022-10-28T08:33:12.594Z,100.00
2022-10-28T08:35:40.190Z,100.00
2022-10-28T08:38:07.716Z,100.00
2022-10-28T08:40:48.251Z,100.00
2022-10-28T08:43:40.029Z,100.00
2022-10-28T08:46:22.678Z,100.00
2022-10-28T08:48:50.182Z,100.00
2022-10-28T08:51:23.584Z,100.00
2022-10-28T08:53:56.141Z,100.00
2022-10-28T08:56:29.655Z,100.00
2022-10-28T08:59:00.272Z,100.00
2022-10-28T09:01:38.575Z,100.00
2022-10-28T09:04:19.478Z,100.00
2022-10-28T09:06:46.951Z,100.00
2022-10-28T09:09:21.174Z,100.00
2022-10-28T09:12:04.083Z,100.00
2022-10-28T09:14:45.351Z,100.00
2022-10-28T09:17:20.046Z,100.00
2022-10-28T09:19:50.842Z,100.00
2022-10-28T09:22:24.875Z,100.00
2022-10-28T09:24:55.757Z,100.00
2022-10-28T09:27:35.598Z,100.00
2022-10-28T09:30:17.821Z,100.00
2022-10-28T09:32:54.064Z,100.00
2022-10-28T09:35:25.928Z,100.00
2022-10-28T09:37:58.757Z,100.00
2022-10-28T09:40:29.367Z,100.00
2022-10-28T09:43:05.469Z,100.00
2022-10-28T09:45:34.350Z,100.00
2022-10-28T09:48:11.916Z,100.00
2022-10-28T09:50:39.626Z,100.00
2022-10-28T09:53:13.050Z,100.00
2022-10-28T09:55:40.723Z,100.00
2022-10-28T09:58:08.226Z,100.00
2022-10-28T10:00:35.901Z,100.00
2022-10-28T10:03:07.110Z,100.00
2022-10-28T10:05:41.571Z,100.00
2022-10-28T10:08:13.658Z,100.00
2022-10-28T10:10:53.728Z,100.00
2022-10-28T10:13:24.698Z,100.00
2022-10-28T10:15:55.019Z,100.00
2022-10-28T10:18:28.020Z,100.00
2022-10-28T10:20:58.447Z,99.91
2022-10-28T10:23:30.823Z,100.00
2022-10-28T10:26:00.346Z,98.95
2022-10-28T10:28:29.012Z,99.42
2022-10-28T10:30:59.111Z,100.00
2022-10-28T10:33:33.161Z,97.42
2022-10-28T10:36:03.843Z,100.00
2022-10-28T10:38:32.996Z,98.90
2022-10-28T10:41:00.494Z,96.43
2022-10-28T10:43:32.583Z,99.09
2022-10-28T10:46:02.739Z,98.02
2022-10-28T10:48:33.826Z,96.05
2022-10-28T10:51:07.525Z,98.48
2022-10-28T10:53:36.949Z,95.79
2022-10-28T10:56:08.318Z,91.49
2022-10-28T10:58:38.792Z,94.33
2022-10-28T11:01:09.325Z,94.04
2022-10-28T11:03:47.185Z,94.63
2022-10-28T11:06:23.900Z,94.94
2022-10-28T11:08:57.474Z,93.06
2022-10-28T11:11:33.218Z,92.06
2022-10-28T11:14:05.138Z,88.93
2022-10-28T11:16:32.661Z,92.45
2022-10-28T11:19:16.567Z,91.46
2022-10-28T11:21:59.322Z,90.78
2022-10-28T11:24:43.594Z,91.27
2022-10-28T11:27:19.766Z,88.26
2022-10-28T11:29:47.820Z,88.43
2022-10-28T11:32:26.649Z,86.14
2022-10-28T11:35:30.580Z,85.81
2022-10-28T11:38:11.669Z,80.21
2022-10-28T11:40:53.141Z,85.04
2022-10-28T11:43:28.498Z,80.66
2022-10-28T11:46:04.420Z,80.01
2022-10-28T11:48:45.997Z,80.16
2022-10-28T11:51:31.237Z,80.70
2022-10-28T11:54:20.902Z,83.89
2022-10-28T11:56:55.093Z,79.01
2022-10-28T12:00:02.195Z,80.60
2022-10-28T12:02:53.559Z,81.03
2022-10-28T12:05:25.532Z,81.59
2022-10-28T12:08:08.301Z,82.88
2022-10-28T12:10:46.834Z,86.39
2022-10-28T12:13:23.033Z,75.70
2022-10-28T12:16:00.590Z,83.85
2022-10-28T12:18:33.926Z,84.21
2022-10-28T12:21:11.223Z,81.71
2022-10-28T12:23:42.430Z,83.06
2022-10-28T12:26:14.618Z,76.45
2022-10-28T12:28:44.653Z,82.42
2022-10-28T12:31:21.345Z,82.60
2022-10-28T12:33:51.930Z,82.71
2022-10-28T12:36:25.441Z,82.21
2022-10-28T12:38:59.550Z,82.72
2022-10-28T12:41:29.039Z,80.58
2022-10-28T12:44:01.539Z,78.40
2022-10-28T12:46:35.382Z,80.54
2022-10-28T12:49:11.369Z,79.95
2022-10-28T12:51:41.686Z,84.23
2022-10-28T12:54:22.281Z,84.77
2022-10-28T12:56:53.289Z,79.78
2022-10-28T12:59:29.409Z,75.21
2022-10-28T13:02:01.078Z,77.62
2022-10-28T13:04:29.330Z,78.14
2022-10-28T13:07:32.902Z,81.14
2022-10-28T13:10:14.153Z,80.41
2022-10-28T13:13:09.464Z,79.78
2022-10-28T13:15:52.476Z,78.54
2022-10-28T13:18:49.301Z,82.08
2022-10-28T13:21:29.139Z,79.82
2022-10-28T13:24:05.504Z,78.22
2022-10-28T13:26:36.584Z,79.69
2022-10-28T13:29:07.888Z,82.47
2022-10-28T13:31:40.611Z,75.39
2022-10-28T13:34:10.247Z,82.55
2022-10-28T13:36:42.626Z,80.78
2022-10-28T13:39:24.744Z,77.45
2022-10-28T13:42:23.732Z,79.67
2022-10-28T13:44:54.041Z,84.12
2022-10-28T13:47:30.084Z,81.72
2022-10-28T13:50:25.964Z,78.69
2022-10-28T13:53:41.851Z,73.49
2022-10-28T13:56:41.011Z,79.16
2022-10-28T13:59:22.551Z,79.13
2022-10-28T14:02:02.226Z,74.94
2022-10-28T14:04:38.421Z,77.71
2022-10-28T14:07:21.499Z,77.95
2022-10-28T14:09:52.259Z,79.08
2022-10-28T14:12:26.602Z,77.22
2022-10-28T14:15:16.802Z,78.65
2022-10-28T14:17:49.118Z,77.05
2022-10-28T14:20:31.350Z,80.59
2022-10-28T14:22:59.221Z,82.79
2022-10-28T14:26:04.298Z,84.96
2022-10-28T14:28:54.741Z,83.66
2022-10-28T14:31:45.032Z,80.16
2022-10-28T14:34:37.600Z,83.01
2022-10-28T14:37:27.504Z,80.45
2022-10-28T14:40:07.160Z,80.26
2022-10-28T14:42:52.202Z,82.62
2022-10-28T14:45:34.917Z,85.81
2022-10-28T14:48:23.113Z,86.72
2022-10-28T14:50:53.788Z,87.54
2022-10-28T14:53:26.343Z,85.08
2022-10-28T14:56:00.621Z,84.76
2022-10-28T14:58:31.540Z,87.23
2022-10-28T15:01:19.857Z,84.34
2022-10-28T15:03:50.772Z,84.38
2022-10-28T15:06:27.836Z,85.95
2022-10-28T15:08:55.816Z,88.61
2022-10-28T15:11:23.840Z,89.81
2022-10-28T15:13:53.554Z,90.59
2022-10-28T15:16:23.091Z,94.04
2022-10-28T15:18:52.567Z,94.05
2022-10-28T15:21:22.295Z,94.71
2022-10-28T15:24:01.306Z,95.79
2022-10-28T15:26:28.992Z,95.21
2022-10-28T15:28:56.865Z,94.73
2022-10-28T15:31:24.485Z,95.92
2022-10-28T15:33:52.008Z,95.90
2022-10-28T15:36:22.200Z,95.37
2022-10-28T15:38:51.050Z,96.49
2022-10-28T15:41:49.182Z,96.98
2022-10-28T15:44:31.378Z,96.14
2022-10-28T15:47:00.390Z,95.17
2022-10-28T15:49:39.205Z,94.84
2022-10-28T15:52:34.662Z,95.40
2022-10-28T15:55:04.729Z,94.90
2022-10-28T15:57:48.006Z,96.04
2022-10-28T16:00:26.553Z,96.86
2022-10-28T16:02:59.045Z,96.71
2022-10-28T16:05:54.442Z,95.73
2022-10-28T16:08:25.423Z,95.29
2022-10-28T16:10:56.459Z,96.42
2022-10-28T16:13:37.760Z,95.73
2022-10-28T16:16:09.318Z,96.43
2022-10-28T16:18:42.962Z,95.35
2022-10-28T16:21:18.619Z,95.57
2022-10-28T16:23:48.745Z,96.13
2022-10-28T16:26:16.634Z,95.86
2022-10-28T16:28:45.561Z,96.12
2022-10-28T16:31:15.991Z,95.97
2022-10-28T16:33:44.089Z,96.01
2022-10-28T16:36:12.201Z,96.86
2022-10-28T16:38:40.006Z,97.78
2022-10-28T16:41:11.934Z,96.96
2022-10-28T16:43:39.410Z,96.60
2022-10-28T16:46:08.621Z,99.57
2022-10-28T16:48:36.083Z,98.41
2022-10-28T16:51:06.181Z,98.18
2022-10-28T16:53:33.746Z,98.08
2022-10-28T16:56:01.185Z,97.68
2022-10-28T16:58:30.006Z,98.37
2022-10-28T17:00:57.850Z,99.65
2022-10-28T17:03:27.004Z,99.79
2022-10-28T17:05:54.882Z,98.47
2022-10-28T17:08:42.296Z,98.13
2022-10-28T17:11:14.743Z,98.06
2022-10-28T17:13:42.193Z,100.00
2022-10-28T17:16:09.633Z,99.15
2022-10-28T17:18:38.465Z,99.12
2022-10-28T17:21:06.394Z,98.74
2022-10-28T17:23:33.845Z,98.07
2022-10-28T17:26:03.341Z,98.45
2022-10-28T17:28:30.901Z,98.64
2022-10-28T17:31:03.349Z,97.50
2022-10-28T17:33:31.013Z,99.22
2022-10-28T17:36:03.074Z,99.73
2022-10-28T17:38:30.805Z,100.00
2022-10-28T17:40:58.741Z,99.74
2022-10-28T17:43:26.210Z,99.05
2022-10-28T17:45:54.915Z,98.94
2022-10-28T17:48:22.506Z,99.16
2022-10-28T17:50:54.663Z,99.62
2022-10-28T17:53:23.602Z,100.00
2022-10-28T17:55:56.821Z,100.00
2022-10-28T17:58:24.329Z,99.62
2022-10-28T18:00:57.394Z,98.71
2022-10-28T18:03:25.210Z,98.12
2022-10-28T18:05:53.077Z,99.41
2022-10-28T18:08:21.482Z,98.33
2022-10-28T18:10:54.840Z,97.84
2022-10-28T18:13:26.329Z,97.16
2022-10-28T18:15:54.010Z,97.13
2022-10-28T18:18:21.509Z,96.99
2022-10-28T18:20:53.510Z,96.93
2022-10-28T18:23:21.015Z,97.78
2022-10-28T18:25:57.678Z,97.09
2022-10-28T18:28:26.554Z,96.57
2022-10-28T18:30:54.038Z,96.92
2022-10-28T18:33:21.745Z,98.69
2022-10-28T18:35:49.208Z,98.76
2022-10-28T18:38:16.694Z,100.00
2022-10-28T18:40:47.786Z,99.38
2022-10-28T18:43:15.585Z,98.68
2022-10-28T18:45:44.616Z,97.80
2022-10-28T18:48:12.078Z,97.29
2022-10-28T18:50:39.556Z,98.93
2022-10-28T18:53:07.010Z,97.69
2022-10-28T18:55:34.491Z,96.96
2022-10-28T18:58:02.014Z,96.81
2022-10-28T19:00:29.583Z,97.79
2022-10-28T19:02:58.401Z,97.71
2022-10-28T19:05:25.883Z,100.00
2022-10-28T19:07:53.663Z,100.00
2022-10-28T19:10:21.410Z,100.00
2022-10-28T19:12:52.745Z,100.00
2022-10-28T19:15:20.573Z,100.00
2022-10-28T19:17:48.062Z,100.00
2022-10-28T19:20:16.914Z,99.12
2022-10-28T19:22:44.450Z,100.00
2022-10-28T19:25:12.426Z,100.00
2022-10-28T19:27:39.921Z,99.83
2022-10-28T19:30:12.398Z,99.71
2022-10-28T19:32:41.146Z,100.00
2022-10-28T19:35:09.400Z,99.87
2022-10-28T19:37:38.209Z,99.59
2022-10-28T19:40:06.511Z,100.00
2022-10-28T19:42:33.836Z,100.00
2022-10-28T19:45:03.768Z,99.49
2022-10-28T19:47:31.315Z,98.81
2022-10-28T19:49:58.968Z,100.00
2022-10-28T19:52:26.455Z,99.60
2022-10-28T19:54:55.248Z,100.00
2022-10-28T19:57:22.725Z,100.00
2022-10-28T19:59:50.195Z,100.00
2022-10-28T20:02:17.818Z,100.00
2022-10-28T20:04:45.815Z,100.00
2022-10-28T20:07:13.270Z,100.00
2022-10-28T20:09:40.718Z,99.07
2022-10-28T20:12:09.611Z,98.45
2022-10-28T20:14:37.178Z,99.48
2022-10-28T20:17:06.751Z,100.00
2022-10-28T20:19:34.373Z,99.54
2022-10-28T20:22:01.847Z,97.60
2022-10-28T20:24:29.310Z,96.97
2022-10-28T20:26:56.801Z,97.71
2022-10-28T20:29:25.597Z,97.11
2022-10-28T20:31:53.230Z,97.38
2022-10-28T20:34:20.706Z,97.58
2022-10-28T20:36:48.402Z,97.12
2022-10-28T20:39:17.425Z,97.31
2022-10-28T20:41:46.739Z,97.10
2022-10-28T20:44:14.669Z,97.41
2022-10-28T20:46:44.908Z,97.12
2022-10-28T20:49:13.155Z,96.88
2022-10-28T20:51:40.559Z,96.88
2022-10-28T20:54:08.122Z,97.23
2022-10-28T20:56:37.706Z,96.79
2022-10-28T20:59:06.043Z,96.95
2022-10-28T21:01:34.461Z,96.62
2022-10-28T21:04:05.683Z,99.04
2022-10-28T21:06:33.615Z,97.56
2022-10-28T21:09:01.365Z,96.71
2022-10-28T21:11:29.622Z,96.43
2022-10-28T21:13:59.250Z,96.90
2022-10-28T21:16:27.762Z,96.13
2022-10-28T21:18:55.795Z,97.35
2022-10-28T21:21:25.298Z,97.14
2022-10-28T21:23:52.843Z,96.46
2022-10-28T21:26:20.611Z,97.03
2022-10-28T21:28:50.349Z,96.17
2022-10-28T21:31:18.194Z,96.67
2022-10-28T21:33:46.416Z,96.33
2022-10-28T21:36:16.048Z,96.04
2022-10-28T21:38:45.205Z,96.38
2022-10-28T21:41:14.633Z,96.09
2022-10-28T21:43:44.980Z,95.87
2022-10-28T21:46:12.584Z,95.82
2022-10-28T21:48:40.828Z,96.31
2022-10-28T21:51:13.520Z,94.84
2022-10-28T21:53:43.236Z,95.57
2022-10-28T21:56:17.005Z,95.04
2022-10-28T21:58:46.912Z,94.55
2022-10-28T22:01:16.968Z,94.79
2022-10-28T22:03:44.545Z,94.26
2022-10-28T22:06:12.230Z,94.60
2022-10-28T22:08:39.708Z,95.75
2022-10-28T22:11:09.072Z,95.57
2022-10-28T22:13:37.916Z,94.94
2022-10-28T22:16:07.304Z,94.67
2022-10-28T22:18:36.576Z,94.87
2022-10-28T22:21:06.397Z,95.02
2022-10-28T22:23:34.165Z,96.53
2022-10-28T22:26:02.755Z,96.03
2022-10-28T22:28:30.234Z,96.28
2022-10-28T22:31:03.881Z,95.98
2022-10-28T22:33:31.474Z,96.51
2022-10-28T22:35:59.720Z,96.81
2022-10-28T22:38:27.913Z,95.99
2022-10-28T22:41:06.255Z,95.69
2022-10-28T22:43:34.323Z,95.57
2022-10-28T22:46:03.724Z,95.43
2022-10-28T22:48:31.838Z,95.56
2022-10-28T22:50:59.499Z,95.23
2022-10-28T22:53:27.364Z,96.77
2022-10-28T22:55:55.196Z,95.56
2022-10-28T22:58:23.618Z,95.45
2022-10-28T23:00:50.980Z,95.22
2022-10-28T23:03:20.071Z,95.31
2022-10-28T23:05:47.572Z,95.42
2022-10-28T23:08:16.713Z,95.40
2022-10-28T23:10:44.274Z,95.40
2022-10-28T23:13:13.575Z,95.39
2022-10-28T23:15:41.184Z,95.49
2022-10-28T23:18:08.649Z,95.34
2022-10-28T23:20:37.588Z,95.46
2022-10-28T23:23:05.139Z,95.57
2022-10-28T23:25:32.612Z,96.08
2022-10-28T23:28:00.113Z,96.84
2022-10-28T23:30:27.688Z,95.79
2022-10-28T23:32:57.608Z,96.18
2022-10-28T23:35:25.101Z,95.48
2022-10-28T23:37:54.118Z,96.50
2022-10-28T23:40:21.857Z,96.97
2022-10-28T23:42:49.312Z,95.69
2022-10-28T23:45:16.841Z,95.81
2022-10-28T23:47:44.308Z,96.82
2022-10-28T23:50:14.676Z,95.72
2022-10-28T23:52:42.657Z,95.47
2022-10-28T23:55:11.680Z,96.40
2022-10-28T23:57:39.167Z,95.68
